sensor_id;sensor_type;location;lat;lon;timestamp;pressure;altitude;pressure_sealevel;temperature
63588;BMP280;49966;46.896;18.004;2023-07-31T00:00:24;100149.53;;;21.30
63588;BMP280;49966;46.896;18.004;2023-07-31T00:02:52;100158.47;;;21.27
63588;BMP280;49966;46.896;18.004;2023-07-31T00:05:27;100155.00;;;21.26
63588;BMP280;49966;46.896;18.004;2023-07-31T00:07:55;100160.31;;;21.30
63588;BMP280;49966;46.896;18.004;2023-07-31T00:10:23;100163.88;;;21.27
63588;BMP280;49966;46.896;18.004;2023-07-31T00:12:52;100166.81;;;21.32
63588;BMP280;49966;46.896;18.004;2023-07-31T00:15:20;100173.13;;;21.26
63588;BMP280;49966;46.896;18.004;2023-07-31T00:17:48;100184.38;;;21.24
63588;BMP280;49966;46.896;18.004;2023-07-31T00:20:17;100181.69;;;21.24
63588;BMP280;49966;46.896;18.004;2023-07-31T00:22:46;100179.78;;;21.21
63588;BMP280;49966;46.896;18.004;2023-07-31T00:25:15;100182.06;;;21.23
63588;BMP280;49966;46.896;18.004;2023-07-31T00:27:43;100192.00;;;21.26
63588;BMP280;49966;46.896;18.004;2023-07-31T00:30:13;100206.16;;;21.30
63588;BMP280;49966;46.896;18.004;2023-07-31T00:32:41;100206.84;;;21.34
63588;BMP280;49966;46.896;18.004;2023-07-31T00:35:09;100212.41;;;21.43
63588;BMP280;49966;46.896;18.004;2023-07-31T00:37:37;100208.34;;;21.51
63588;BMP280;49966;46.896;18.004;2023-07-31T00:40:08;100203.81;;;21.48
63588;BMP280;49966;46.896;18.004;2023-07-31T00:42:36;100209.31;;;21.45
63588;BMP280;49966;46.896;18.004;2023-07-31T00:45:05;100205.56;;;21.39
63588;BMP280;49966;46.896;18.004;2023-07-31T00:47:33;100200.28;;;21.35
63588;BMP280;49966;46.896;18.004;2023-07-31T00:50:02;100205.75;;;21.31
63588;BMP280;49966;46.896;18.004;2023-07-31T00:52:30;100222.78;;;21.28
63588;BMP280;49966;46.896;18.004;2023-07-31T00:54:59;100211.34;;;21.24
63588;BMP280;49966;46.896;18.004;2023-07-31T00:57:29;100216.13;;;21.17
63588;BMP280;49966;46.896;18.004;2023-07-31T00:59:58;100229.66;;;21.13
63588;BMP280;49966;46.896;18.004;2023-07-31T01:02:27;100219.84;;;21.06
63588;BMP280;49966;46.896;18.004;2023-07-31T01:04:56;100209.13;;;21.03
63588;BMP280;49966;46.896;18.004;2023-07-31T01:07:29;100215.75;;;20.98
63588;BMP280;49966;46.896;18.004;2023-07-31T01:10:04;100200.00;;;20.97
63588;BMP280;49966;46.896;18.004;2023-07-31T01:12:38;100190.09;;;20.94
63588;BMP280;49966;46.896;18.004;2023-07-31T01:15:07;100204.72;;;20.93
63588;BMP280;49966;46.896;18.004;2023-07-31T01:17:38;100210.56;;;20.91
63588;BMP280;49966;46.896;18.004;2023-07-31T01:20:10;100216.69;;;20.92
63588;BMP280;49966;46.896;18.004;2023-07-31T01:22:54;100203.25;;;20.88
63588;BMP280;49966;46.896;18.004;2023-07-31T01:25:56;100203.03;;;20.83
63588;BMP280;49966;46.896;18.004;2023-07-31T01:28:33;100193.06;;;20.79
63588;BMP280;49966;46.896;18.004;2023-07-31T01:31:07;100204.28;;;20.78
63588;BMP280;49966;46.896;18.004;2023-07-31T01:33:39;100202.00;;;20.76
63588;BMP280;49966;46.896;18.004;2023-07-31T01:36:08;100193.50;;;20.78
63588;BMP280;49966;46.896;18.004;2023-07-31T01:38:36;100215.81;;;20.78
63588;BMP280;49966;46.896;18.004;2023-07-31T01:41:06;100208.91;;;20.77
63588;BMP280;49966;46.896;18.004;2023-07-31T01:43:34;100203.59;;;20.74
63588;BMP280;49966;46.896;18.004;2023-07-31T01:46:02;100206.22;;;20.77
63588;BMP280;49966;46.896;18.004;2023-07-31T01:48:33;100193.50;;;20.78
63588;BMP280;49966;46.896;18.004;2023-07-31T01:51:03;100203.50;;;20.77
63588;BMP280;49966;46.896;18.004;2023-07-31T01:53:32;100199.84;;;20.68
63588;BMP280;49966;46.896;18.004;2023-07-31T01:56:11;100218.81;;;20.64
63588;BMP280;49966;46.896;18.004;2023-07-31T01:58:39;100216.50;;;20.63
63588;BMP280;49966;46.896;18.004;2023-07-31T02:03:38;100225.53;;;20.56
63588;BMP280;49966;46.896;18.004;2023-07-31T02:06:07;100233.91;;;20.58
63588;BMP280;49966;46.896;18.004;2023-07-31T02:08:35;100242.63;;;20.66
63588;BMP280;49966;46.896;18.004;2023-07-31T02:11:03;100242.97;;;20.68
63588;BMP280;49966;46.896;18.004;2023-07-31T02:13:33;100235.38;;;20.63
63588;BMP280;49966;46.896;18.004;2023-07-31T02:16:01;100262.69;;;20.65
63588;BMP280;49966;46.896;18.004;2023-07-31T02:18:30;100278.75;;;20.68
63588;BMP280;49966;46.896;18.004;2023-07-31T02:20:58;100256.31;;;20.75
63588;BMP280;49966;46.896;18.004;2023-07-31T02:23:26;100272.47;;;20.75
63588;BMP280;49966;46.896;18.004;2023-07-31T02:25:54;100254.19;;;20.66
63588;BMP280;49966;46.896;18.004;2023-07-31T02:28:23;100252.38;;;20.60
63588;BMP280;49966;46.896;18.004;2023-07-31T02:30:52;100255.47;;;20.58
63588;BMP280;49966;46.896;18.004;2023-07-31T02:33:21;100260.56;;;20.56
63588;BMP280;49966;46.896;18.004;2023-07-31T02:35:49;100259.22;;;20.64
63588;BMP280;49966;46.896;18.004;2023-07-31T02:38:18;100268.94;;;20.58
63588;BMP280;49966;46.896;18.004;2023-07-31T02:40:46;100256.53;;;20.64
63588;BMP280;49966;46.896;18.004;2023-07-31T02:43:15;100259.72;;;20.59
63588;BMP280;49966;46.896;18.004;2023-07-31T02:45:43;100247.91;;;20.53
63588;BMP280;49966;46.896;18.004;2023-07-31T02:48:16;100254.72;;;20.58
63588;BMP280;49966;46.896;18.004;2023-07-31T02:50:44;100266.41;;;20.51
63588;BMP280;49966;46.896;18.004;2023-07-31T02:53:12;100271.03;;;20.50
63588;BMP280;49966;46.896;18.004;2023-07-31T02:55:41;100241.38;;;20.50
63588;BMP280;49966;46.896;18.004;2023-07-31T02:58:09;100262.28;;;20.46
63588;BMP280;49966;46.896;18.004;2023-07-31T03:00:42;100250.41;;;20.44
63588;BMP280;49966;46.896;18.004;2023-07-31T03:03:10;100267.31;;;20.44
63588;BMP280;49966;46.896;18.004;2023-07-31T03:05:40;100261.56;;;20.42
63588;BMP280;49966;46.896;18.004;2023-07-31T03:08:08;100261.28;;;20.37
63588;BMP280;49966;46.896;18.004;2023-07-31T03:10:36;100277.44;;;20.37
63588;BMP280;49966;46.896;18.004;2023-07-31T03:13:47;100279.44;;;20.33
63588;BMP280;49966;46.896;18.004;2023-07-31T03:16:19;100276.06;;;20.29
63588;BMP280;49966;46.896;18.004;2023-07-31T03:18:47;100271.03;;;20.31
63588;BMP280;49966;46.896;18.004;2023-07-31T03:21:17;100274.22;;;20.25
63588;BMP280;49966;46.896;18.004;2023-07-31T03:23:45;100277.28;;;20.24
63588;BMP280;49966;46.896;18.004;2023-07-31T03:26:13;100288.47;;;20.22
63588;BMP280;49966;46.896;18.004;2023-07-31T03:28:42;100287.34;;;20.20
63588;BMP280;49966;46.896;18.004;2023-07-31T03:31:10;100279.38;;;20.16
63588;BMP280;49966;46.896;18.004;2023-07-31T03:33:38;100282.41;;;20.18
63588;BMP280;49966;46.896;18.004;2023-07-31T03:36:07;100288.28;;;20.13
63588;BMP280;49966;46.896;18.004;2023-07-31T03:38:37;100262.44;;;20.16
63588;BMP280;49966;46.896;18.004;2023-07-31T03:41:05;100277.44;;;20.17
63588;BMP280;49966;46.896;18.004;2023-07-31T03:43:34;100272.13;;;20.13
63588;BMP280;49966;46.896;18.004;2023-07-31T03:46:04;100282.13;;;20.13
63588;BMP280;49966;46.896;18.004;2023-07-31T03:48:35;100289.13;;;20.07
63588;BMP280;49966;46.896;18.004;2023-07-31T03:51:05;100282.66;;;20.04
63588;BMP280;49966;46.896;18.004;2023-07-31T03:53:34;100274.53;;;20.08
63588;BMP280;49966;46.896;18.004;2023-07-31T03:56:05;100294.81;;;20.12
63588;BMP280;49966;46.896;18.004;2023-07-31T03:58:34;100276.78;;;20.09
63588;BMP280;49966;46.896;18.004;2023-07-31T04:01:04;100294.00;;;20.15
63588;BMP280;49966;46.896;18.004;2023-07-31T04:03:33;100295.59;;;20.13
63588;BMP280;49966;46.896;18.004;2023-07-31T04:06:02;100310.16;;;20.15
63588;BMP280;49966;46.896;18.004;2023-07-31T04:08:31;100306.72;;;20.15
63588;BMP280;49966;46.896;18.004;2023-07-31T04:11:00;100307.41;;;20.19
63588;BMP280;49966;46.896;18.004;2023-07-31T04:13:30;100311.13;;;20.25
63588;BMP280;49966;46.896;18.004;2023-07-31T04:15:59;100311.53;;;20.23
63588;BMP280;49966;46.896;18.004;2023-07-31T04:18:28;100324.53;;;20.29
63588;BMP280;49966;46.896;18.004;2023-07-31T04:20:58;100342.50;;;20.35
63588;BMP280;49966;46.896;18.004;2023-07-31T04:23:28;100331.31;;;20.37
63588;BMP280;49966;46.896;18.004;2023-07-31T04:25:57;100325.81;;;20.44
63588;BMP280;49966;46.896;18.004;2023-07-31T04:28:26;100338.44;;;20.47
63588;BMP280;49966;46.896;18.004;2023-07-31T04:30:56;100343.72;;;20.54
63588;BMP280;49966;46.896;18.004;2023-07-31T04:33:26;100328.19;;;20.62
63588;BMP280;49966;46.896;18.004;2023-07-31T04:36:02;100340.59;;;20.56
63588;BMP280;49966;46.896;18.004;2023-07-31T04:38:37;100334.72;;;20.61
63588;BMP280;49966;46.896;18.004;2023-07-31T04:41:06;100341.59;;;20.65
63588;BMP280;49966;46.896;18.004;2023-07-31T04:43:35;100329.63;;;20.66
63588;BMP280;49966;46.896;18.004;2023-07-31T04:46:07;100316.50;;;20.68
63588;BMP280;49966;46.896;18.004;2023-07-31T04:48:36;100336.81;;;20.73
63588;BMP280;49966;46.896;18.004;2023-07-31T04:51:08;100331.38;;;20.76
63588;BMP280;49966;46.896;18.004;2023-07-31T04:53:37;100334.41;;;20.78
63588;BMP280;49966;46.896;18.004;2023-07-31T04:56:06;100332.50;;;20.75
63588;BMP280;49966;46.896;18.004;2023-07-31T04:58:35;100321.47;;;20.70
63588;BMP280;49966;46.896;18.004;2023-07-31T05:01:12;100322.09;;;20.77
63588;BMP280;49966;46.896;18.004;2023-07-31T05:03:41;100332.19;;;20.73
63588;BMP280;49966;46.896;18.004;2023-07-31T05:06:10;100348.69;;;20.75
63588;BMP280;49966;46.896;18.004;2023-07-31T05:08:39;100348.63;;;20.79
63588;BMP280;49966;46.896;18.004;2023-07-31T05:11:08;100335.22;;;20.75
63588;BMP280;49966;46.896;18.004;2023-07-31T05:13:37;100318.38;;;20.71
63588;BMP280;49966;46.896;18.004;2023-07-31T05:16:06;100341.81;;;20.74
63588;BMP280;49966;46.896;18.004;2023-07-31T05:18:36;100347.53;;;20.76
63588;BMP280;49966;46.896;18.004;2023-07-31T05:21:04;100327.25;;;20.88
63588;BMP280;49966;46.896;18.004;2023-07-31T05:23:33;100313.53;;;20.83
63588;BMP280;49966;46.896;18.004;2023-07-31T05:26:04;100320.16;;;20.98
63588;BMP280;49966;46.896;18.004;2023-07-31T05:28:34;100315.03;;;21.03
63588;BMP280;49966;46.896;18.004;2023-07-31T05:31:03;100303.66;;;21.12
63588;BMP280;49966;46.896;18.004;2023-07-31T05:33:37;100304.41;;;21.13
63588;BMP280;49966;46.896;18.004;2023-07-31T05:48:31;100331.75;;;22.29
63588;BMP280;49966;46.896;18.004;2023-07-31T05:51:02;100342.59;;;23.72
63588;BMP280;49966;46.896;18.004;2023-07-31T05:53:30;100347.06;;;25.16
63588;BMP280;49966;46.896;18.004;2023-07-31T05:55:59;100362.47;;;25.96
63588;BMP280;49966;46.896;18.004;2023-07-31T05:58:27;100350.38;;;25.78
63588;BMP280;49966;46.896;18.004;2023-07-31T06:00:55;100338.09;;;25.37
63588;BMP280;49966;46.896;18.004;2023-07-31T06:03:24;100339.22;;;24.78
63588;BMP280;49966;46.896;18.004;2023-07-31T06:05:52;100339.47;;;24.18
63588;BMP280;49966;46.896;18.004;2023-07-31T06:08:24;100338.69;;;23.61
63588;BMP280;49966;46.896;18.004;2023-07-31T06:10:53;100333.41;;;23.32
63588;BMP280;49966;46.896;18.004;2023-07-31T06:13:21;100336.78;;;23.23
63588;BMP280;49966;46.896;18.004;2023-07-31T06:15:49;100364.00;;;24.14
63588;BMP280;49966;46.896;18.004;2023-07-31T06:18:18;100389.47;;;26.08
63588;BMP280;49966;46.896;18.004;2023-07-31T06:20:46;100379.19;;;27.87
63588;BMP280;49966;46.896;18.004;2023-07-31T06:23:14;100399.69;;;29.47
63588;BMP280;49966;46.896;18.004;2023-07-31T06:25:46;100408.50;;;31.19
63588;BMP280;49966;46.896;18.004;2023-07-31T06:28:15;100407.88;;;32.59
63588;BMP280;49966;46.896;18.004;2023-07-31T06:30:43;100428.94;;;33.08
63588;BMP280;49966;46.896;18.004;2023-07-31T06:33:11;100414.72;;;33.04
63588;BMP280;49966;46.896;18.004;2023-07-31T06:35:40;100425.84;;;32.65
63588;BMP280;49966;46.896;18.004;2023-07-31T06:38:08;100406.41;;;31.74
63588;BMP280;49966;46.896;18.004;2023-07-31T06:40:36;100413.81;;;31.34
63588;BMP280;49966;46.896;18.004;2023-07-31T06:43:06;100407.97;;;31.15
63588;BMP280;49966;46.896;18.004;2023-07-31T06:45:36;100404.78;;;30.74
63588;BMP280;49966;46.896;18.004;2023-07-31T06:48:04;100407.16;;;30.50
63588;BMP280;49966;46.896;18.004;2023-07-31T06:50:33;100414.78;;;30.14
63588;BMP280;49966;46.896;18.004;2023-07-31T06:53:01;100413.78;;;29.86
63588;BMP280;49966;46.896;18.004;2023-07-31T06:55:30;100399.69;;;29.47
63588;BMP280;49966;46.896;18.004;2023-07-31T06:57:58;100389.97;;;28.55
63588;BMP280;49966;46.896;18.004;2023-07-31T07:00:28;100385.28;;;28.26
63588;BMP280;49966;46.896;18.004;2023-07-31T07:02:56;100394.69;;;28.10
63588;BMP280;49966;46.896;18.004;2023-07-31T07:05:25;100389.50;;;27.59
63588;BMP280;49966;46.896;18.004;2023-07-31T07:07:53;100391.31;;;27.38
63588;BMP280;49966;46.896;18.004;2023-07-31T07:10:21;100389.03;;;26.89
63588;BMP280;49966;46.896;18.004;2023-07-31T07:12:50;100400.78;;;26.95
63588;BMP280;49966;46.896;18.004;2023-07-31T07:15:18;100395.13;;;27.08
63588;BMP280;49966;46.896;18.004;2023-07-31T07:17:49;100394.91;;;26.87
63588;BMP280;49966;46.896;18.004;2023-07-31T07:20:18;100393.69;;;26.88
63588;BMP280;49966;46.896;18.004;2023-07-31T07:22:47;100383.72;;;26.85
63588;BMP280;49966;46.896;18.004;2023-07-31T07:25:15;100404.31;;;26.77
63588;BMP280;49966;46.896;18.004;2023-07-31T07:27:55;100408.81;;;26.80
63588;BMP280;49966;46.896;18.004;2023-07-31T07:30:23;100401.28;;;26.75
63588;BMP280;49966;46.896;18.004;2023-07-31T07:32:54;100402.50;;;26.74
63588;BMP280;49966;46.896;18.004;2023-07-31T07:35:22;100398.69;;;26.81
63588;BMP280;49966;46.896;18.004;2023-07-31T07:37:50;100379.25;;;27.06
63588;BMP280;49966;46.896;18.004;2023-07-31T07:40:19;100368.13;;;27.19
63588;BMP280;49966;46.896;18.004;2023-07-31T07:42:48;100386.63;;;27.15
63588;BMP280;49966;46.896;18.004;2023-07-31T07:45:16;100364.25;;;27.11
63588;BMP280;49966;46.896;18.004;2023-07-31T07:47:44;100390.13;;;27.06
63588;BMP280;49966;46.896;18.004;2023-07-31T07:50:14;100376.38;;;27.00
63588;BMP280;49966;46.896;18.004;2023-07-31T07:52:43;100393.63;;;27.07
63588;BMP280;49966;46.896;18.004;2023-07-31T07:55:13;100366.09;;;27.05
63588;BMP280;49966;46.896;18.004;2023-07-31T07:57:42;100387.13;;;27.04
63588;BMP280;49966;46.896;18.004;2023-07-31T08:00:12;100378.06;;;26.98
63588;BMP280;49966;46.896;18.004;2023-07-31T08:02:41;100372.38;;;26.87
63588;BMP280;49966;46.896;18.004;2023-07-31T08:05:09;100377.84;;;27.11
63588;BMP280;49966;46.896;18.004;2023-07-31T08:07:39;100392.00;;;26.91
63588;BMP280;49966;46.896;18.004;2023-07-31T08:10:07;100403.31;;;26.98
63588;BMP280;49966;46.896;18.004;2023-07-31T08:12:36;100401.75;;;26.74
63588;BMP280;49966;46.896;18.004;2023-07-31T08:15:05;100408.06;;;26.80
63588;BMP280;49966;46.896;18.004;2023-07-31T08:17:34;100409.03;;;27.10
63588;BMP280;49966;46.896;18.004;2023-07-31T08:20:02;100418.44;;;27.09
63588;BMP280;49966;46.896;18.004;2023-07-31T08:22:32;100408.97;;;26.86
63588;BMP280;49966;46.896;18.004;2023-07-31T08:25:01;100418.22;;;27.12
63588;BMP280;49966;46.896;18.004;2023-07-31T08:27:30;100411.56;;;27.13
63588;BMP280;49966;46.896;18.004;2023-07-31T08:29:58;100410.56;;;27.35
63588;BMP280;49966;46.896;18.004;2023-07-31T08:32:28;100407.81;;;27.35
63588;BMP280;49966;46.896;18.004;2023-07-31T08:34:56;100409.44;;;27.41
63588;BMP280;49966;46.896;18.004;2023-07-31T08:37:24;100420.53;;;27.62
63588;BMP280;49966;46.896;18.004;2023-07-31T08:39:55;100418.31;;;27.51
63588;BMP280;49966;46.896;18.004;2023-07-31T08:42:26;100394.75;;;27.24
63588;BMP280;49966;46.896;18.004;2023-07-31T08:44:57;100392.84;;;27.39
63588;BMP280;49966;46.896;18.004;2023-07-31T08:47:28;100406.16;;;27.61
63588;BMP280;49966;46.896;18.004;2023-07-31T08:49:57;100398.72;;;27.47
63588;BMP280;49966;46.896;18.004;2023-07-31T08:52:25;100404.22;;;27.28
63588;BMP280;49966;46.896;18.004;2023-07-31T08:54:54;100400.31;;;27.29
63588;BMP280;49966;46.896;18.004;2023-07-31T08:57:22;100420.88;;;27.30
63588;BMP280;49966;46.896;18.004;2023-07-31T08:59:53;100426.56;;;27.66
63588;BMP280;49966;46.896;18.004;2023-07-31T09:02:21;100421.75;;;27.60
63588;BMP280;49966;46.896;18.004;2023-07-31T09:04:51;100406.16;;;27.61
63588;BMP280;49966;46.896;18.004;2023-07-31T09:07:20;100410.41;;;27.77
63588;BMP280;49966;46.896;18.004;2023-07-31T09:09:49;100417.00;;;27.46
63588;BMP280;49966;46.896;18.004;2023-07-31T09:12:17;100409.72;;;27.52
63588;BMP280;49966;46.896;18.004;2023-07-31T09:14:46;100416.47;;;27.57
63588;BMP280;49966;46.896;18.004;2023-07-31T09:17:28;100412.13;;;27.89
63588;BMP280;49966;46.896;18.004;2023-07-31T09:19:57;100414.19;;;27.79
63588;BMP280;49966;46.896;18.004;2023-07-31T09:22:32;100417.59;;;27.89
63588;BMP280;49966;46.896;18.004;2023-07-31T09:25:14;100395.00;;;27.74
63588;BMP280;49966;46.896;18.004;2023-07-31T09:27:47;100390.16;;;27.78
63588;BMP280;49966;46.896;18.004;2023-07-31T09:30:16;100387.41;;;27.54
63588;BMP280;49966;46.896;18.004;2023-07-31T09:32:47;100390.09;;;27.63
63588;BMP280;49966;46.896;18.004;2023-07-31T09:35:19;100392.03;;;27.86
63588;BMP280;49966;46.896;18.004;2023-07-31T09:37:49;100383.59;;;28.14
63588;BMP280;49966;46.896;18.004;2023-07-31T09:40:28;100388.88;;;28.17
63588;BMP280;49966;46.896;18.004;2023-07-31T09:42:58;100370.53;;;27.50
63588;BMP280;49966;46.896;18.004;2023-07-31T09:45:27;100379.78;;;27.43
63588;BMP280;49966;46.896;18.004;2023-07-31T09:48:10;100395.75;;;27.59
63588;BMP280;49966;46.896;18.004;2023-07-31T09:50:41;100380.78;;;27.55
63588;BMP280;49966;46.896;18.004;2023-07-31T09:53:09;100419.81;;;27.76
63588;BMP280;49966;46.896;18.004;2023-07-31T09:55:39;100399.72;;;27.88
63588;BMP280;49966;46.896;18.004;2023-07-31T09:58:09;100390.16;;;27.78
63588;BMP280;49966;46.896;18.004;2023-07-31T10:00:37;100389.41;;;27.92
63588;BMP280;49966;46.896;18.004;2023-07-31T10:03:09;100376.22;;;27.76
63588;BMP280;49966;46.896;18.004;2023-07-31T10:05:40;100374.44;;;27.73
63588;BMP280;49966;46.896;18.004;2023-07-31T10:08:13;100361.56;;;27.88
63588;BMP280;49966;46.896;18.004;2023-07-31T10:10:43;100370.22;;;27.48
63588;BMP280;49966;46.896;18.004;2023-07-31T10:13:12;100364.72;;;27.33
63588;BMP280;49966;46.896;18.004;2023-07-31T10:15:41;100367.06;;;27.49
63588;BMP280;49966;46.896;18.004;2023-07-31T10:18:12;100375.56;;;27.42
63588;BMP280;49966;46.896;18.004;2023-07-31T10:20:41;100354.06;;;27.44
63588;BMP280;49966;46.896;18.004;2023-07-31T10:23:09;100345.66;;;27.72
63588;BMP280;49966;46.896;18.004;2023-07-31T10:25:41;100358.03;;;27.58
63588;BMP280;49966;46.896;18.004;2023-07-31T10:28:11;100344.88;;;27.56
63588;BMP280;49966;46.896;18.004;2023-07-31T10:30:40;100349.31;;;27.06
63588;BMP280;49966;46.896;18.004;2023-07-31T10:33:09;100346.44;;;27.00
63588;BMP280;49966;46.896;18.004;2023-07-31T10:35:40;100357.63;;;27.02
63588;BMP280;49966;46.896;18.004;2023-07-31T10:38:09;100339.53;;;26.57
63588;BMP280;49966;46.896;18.004;2023-07-31T10:40:38;100341.81;;;26.50
63588;BMP280;49966;46.896;18.004;2023-07-31T10:43:07;100337.31;;;26.89
63588;BMP280;49966;46.896;18.004;2023-07-31T10:45:42;100341.34;;;26.93
63588;BMP280;49966;46.896;18.004;2023-07-31T10:48:15;100333.44;;;27.05
63588;BMP280;49966;46.896;18.004;2023-07-31T10:50:51;100343.88;;;27.30
63588;BMP280;49966;46.896;18.004;2023-07-31T10:53:24;100332.59;;;26.89
63588;BMP280;49966;46.896;18.004;2023-07-31T10:55:58;100326.72;;;27.15
63588;BMP280;49966;46.896;18.004;2023-07-31T10:58:26;100330.53;;;27.08
63588;BMP280;49966;46.896;18.004;2023-07-31T11:00:56;100314.50;;;27.34
63588;BMP280;49966;46.896;18.004;2023-07-31T11:03:26;100328.00;;;27.05
63588;BMP280;49966;46.896;18.004;2023-07-31T11:06:01;100334.63;;;27.37
63588;BMP280;49966;46.896;18.004;2023-07-31T11:08:31;100323.34;;;27.44
63588;BMP280;49966;46.896;18.004;2023-07-31T11:11:07;100316.13;;;27.17
63588;BMP280;49966;46.896;18.004;2023-07-31T11:13:41;100326.41;;;27.13
63588;BMP280;49966;46.896;18.004;2023-07-31T11:16:10;100312.25;;;27.09
63588;BMP280;49966;46.896;18.004;2023-07-31T11:18:39;100310.50;;;27.20
63588;BMP280;49966;46.896;18.004;2023-07-31T11:21:12;100316.09;;;26.93
63588;BMP280;49966;46.896;18.004;2023-07-31T11:23:41;100316.16;;;26.84
63588;BMP280;49966;46.896;18.004;2023-07-31T11:26:09;100279.50;;;27.18
63588;BMP280;49966;46.896;18.004;2023-07-31T11:28:38;100289.19;;;27.19
63588;BMP280;49966;46.896;18.004;2023-07-31T11:31:10;100279.47;;;27.42
63588;BMP280;49966;46.896;18.004;2023-07-31T11:33:38;100291.97;;;27.48
63588;BMP280;49966;46.896;18.004;2023-07-31T11:36:15;100295.56;;;27.69
63588;BMP280;49966;46.896;18.004;2023-07-31T11:38:44;100292.97;;;27.89
63588;BMP280;49966;46.896;18.004;2023-07-31T11:41:14;100290.66;;;27.97
63588;BMP280;49966;46.896;18.004;2023-07-31T11:43:43;100293.16;;;28.01
63588;BMP280;49966;46.896;18.004;2023-07-31T11:46:11;100298.03;;;28.11
63588;BMP280;49966;46.896;18.004;2023-07-31T11:48:41;100281.59;;;28.06
63588;BMP280;49966;46.896;18.004;2023-07-31T11:51:10;100283.28;;;27.88
63588;BMP280;49966;46.896;18.004;2023-07-31T11:53:43;100272.66;;;27.76
63588;BMP280;49966;46.896;18.004;2023-07-31T11:56:14;100269.19;;;27.75
63588;BMP280;49966;46.896;18.004;2023-07-31T11:58:46;100281.28;;;27.74
63588;BMP280;49966;46.896;18.004;2023-07-31T12:01:18;100292.66;;;27.73
63588;BMP280;49966;46.896;18.004;2023-07-31T12:03:47;100305.84;;;27.59
63588;BMP280;49966;46.896;18.004;2023-07-31T12:06:16;100308.38;;;27.24
63588;BMP280;49966;46.896;18.004;2023-07-31T12:08:46;100302.56;;;27.08
63588;BMP280;49966;46.896;18.004;2023-07-31T12:11:14;100294.44;;;27.22
63588;BMP280;49966;46.896;18.004;2023-07-31T12:13:45;100306.88;;;27.38
63588;BMP280;49966;46.896;18.004;2023-07-31T12:16:13;100294.19;;;27.35
63588;BMP280;49966;46.896;18.004;2023-07-31T12:18:49;100285.41;;;27.16
63588;BMP280;49966;46.896;18.004;2023-07-31T12:21:32;100291.59;;;26.93
63588;BMP280;49966;46.896;18.004;2023-07-31T12:24:06;100305.50;;;26.95
63588;BMP280;49966;46.896;18.004;2023-07-31T12:26:45;100255.72;;;27.04
63588;BMP280;49966;46.896;18.004;2023-07-31T12:29:17;100236.63;;;26.80
63588;BMP280;49966;46.896;18.004;2023-07-31T12:31:46;100254.06;;;27.21
63588;BMP280;49966;46.896;18.004;2023-07-31T12:34:27;100231.31;;;27.09
63588;BMP280;49966;46.896;18.004;2023-07-31T12:36:58;100223.97;;;27.00
63588;BMP280;49966;46.896;18.004;2023-07-31T12:39:28;100236.94;;;26.82
63588;BMP280;49966;46.896;18.004;2023-07-31T12:41:56;100230.63;;;26.76
63588;BMP280;49966;46.896;18.004;2023-07-31T12:44:24;100222.31;;;26.79
63588;BMP280;49966;46.896;18.004;2023-07-31T12:46:52;100231.47;;;27.06
63588;BMP280;49966;46.896;18.004;2023-07-31T12:49:21;100217.63;;;27.18
63588;BMP280;49966;46.896;18.004;2023-07-31T12:51:49;100226.16;;;27.50
63588;BMP280;49966;46.896;18.004;2023-07-31T12:54:17;100235.06;;;27.50
63588;BMP280;49966;46.896;18.004;2023-07-31T12:56:47;100209.97;;;27.61
63588;BMP280;49966;46.896;18.004;2023-07-31T12:59:16;100209.03;;;27.64
63588;BMP280;49966;46.896;18.004;2023-07-31T13:01:44;100213.16;;;27.89
63588;BMP280;49966;46.896;18.004;2023-07-31T13:04:12;100188.59;;;28.04
63588;BMP280;49966;46.896;18.004;2023-07-31T13:06:41;100202.09;;;27.78
63588;BMP280;49966;46.896;18.004;2023-07-31T13:09:12;100202.72;;;27.28
63588;BMP280;49966;46.896;18.004;2023-07-31T13:11:40;100189.28;;;27.25
63588;BMP280;49966;46.896;18.004;2023-07-31T13:14:10;100189.00;;;27.23
63588;BMP280;49966;46.896;18.004;2023-07-31T13:16:39;100197.41;;;27.34
63588;BMP280;49966;46.896;18.004;2023-07-31T13:19:08;100214.00;;;27.51
63588;BMP280;49966;46.896;18.004;2023-07-31T13:21:36;100219.25;;;27.69
63588;BMP280;49966;46.896;18.004;2023-07-31T13:24:05;100198.72;;;27.68
63588;BMP280;49966;46.896;18.004;2023-07-31T13:26:33;100189.50;;;27.36
63588;BMP280;49966;46.896;18.004;2023-07-31T13:29:02;100182.09;;;27.37
63588;BMP280;49966;46.896;18.004;2023-07-31T13:31:44;100201.06;;;27.46
63588;BMP280;49966;46.896;18.004;2023-07-31T13:34:12;100179.25;;;27.46
63588;BMP280;49966;46.896;18.004;2023-07-31T13:36:40;100177.84;;;27.36
63588;BMP280;49966;46.896;18.004;2023-07-31T13:39:09;100169.09;;;27.02
63588;BMP280;49966;46.896;18.004;2023-07-31T13:41:39;100168.88;;;27.06
63588;BMP280;49966;46.896;18.004;2023-07-31T13:44:07;100157.28;;;26.96
63588;BMP280;49966;46.896;18.004;2023-07-31T13:46:36;100157.44;;;27.02
63588;BMP280;49966;46.896;18.004;2023-07-31T13:49:07;100162.69;;;27.05
63588;BMP280;49966;46.896;18.004;2023-07-31T13:51:35;100171.06;;;27.16
63588;BMP280;49966;46.896;18.004;2023-07-31T13:54:06;100161.59;;;27.12
63588;BMP280;49966;46.896;18.004;2023-07-31T13:56:34;100147.31;;;27.02
63588;BMP280;49966;46.896;18.004;2023-07-31T13:59:03;100150.47;;;27.00
63588;BMP280;49966;46.896;18.004;2023-07-31T14:01:31;100138.13;;;27.14
63588;BMP280;49966;46.896;18.004;2023-07-31T14:04:00;100140.25;;;27.10
63588;BMP280;49966;46.896;18.004;2023-07-31T14:06:29;100138.41;;;27.16
63588;BMP280;49966;46.896;18.004;2023-07-31T14:08:58;100142.22;;;27.10
63588;BMP280;49966;46.896;18.004;2023-07-31T14:11:26;100154.47;;;27.14
63588;BMP280;49966;46.896;18.004;2023-07-31T14:13:55;100161.69;;;27.32